createdAt,value
2018-04-30T19:11:46.244Z,5.50
2018-04-30T19:19:02.817Z,5.30
2018-04-30T19:21:31.803Z,4.70
2018-04-30T19:24:00.701Z,4.50
2018-04-30T19:29:08.278Z,8.00
2018-04-30T19:31:37.548Z,7.50
2018-04-30T19:34:06.596Z,7.40
2018-04-30T19:36:35.596Z,8.00
2018-04-30T19:39:04.589Z,7.33
2018-04-30T19:41:33.564Z,7.40
2018-04-30T19:44:02.583Z,8.10
2018-04-30T19:46:31.582Z,7.80
2018-04-30T19:49:00.552Z,8.43
2018-04-30T19:51:29.546Z,8.07
2018-04-30T19:53:58.551Z,7.40
2018-04-30T19:56:27.535Z,7.60
2018-04-30T19:58:56.521Z,7.73
2018-04-30T20:01:25.530Z,7.57
2018-04-30T20:03:54.629Z,7.57
2018-04-30T20:06:23.601Z,8.53
2018-04-30T20:08:52.655Z,8.30
2018-04-30T20:11:21.704Z,8.87
2018-04-30T20:13:50.632Z,8.77
2018-04-30T20:16:19.673Z,9.30
2018-04-30T20:18:48.669Z,9.13
2018-04-30T20:21:17.695Z,9.03
2018-04-30T20:23:46.651Z,9.57
2018-04-30T20:26:15.544Z,6.93
2018-04-30T20:28:44.538Z,6.43
2018-04-30T20:31:13.409Z,5.63
2018-04-30T20:33:42.340Z,4.57
2018-04-30T20:36:11.278Z,5.30
2018-04-30T20:38:41.257Z,4.50
2018-04-30T20:41:10.318Z,4.03
2018-04-30T20:43:39.746Z,3.40
2018-04-30T20:46:08.657Z,3.77
2018-04-30T20:48:37.578Z,3.87
2018-04-30T20:51:06.597Z,3.60
2018-04-30T20:53:35.590Z,3.23
2018-04-30T20:56:04.599Z,4.00
2018-04-30T20:58:33.496Z,3.50
2018-04-30T21:01:02.583Z,3.67
2018-04-30T21:03:31.558Z,3.53
2018-04-30T21:06:00.558Z,3.60
2018-04-30T21:08:29.518Z,4.20
2018-04-30T21:10:58.559Z,4.23
2018-04-30T21:13:27.833Z,3.67
2018-04-30T21:15:56.736Z,3.90
2018-04-30T21:18:25.712Z,3.93
2018-04-30T21:20:54.618Z,4.30
2018-04-30T21:23:23.807Z,3.80
2018-04-30T21:25:52.819Z,4.53
2018-04-30T21:28:21.798Z,4.43
2018-04-30T21:30:50.766Z,4.70
2018-04-30T21:33:20.696Z,4.30
2018-04-30T21:35:50.708Z,4.23
2018-04-30T21:38:19.718Z,4.60
2018-04-30T21:40:48.718Z,4.47
2018-04-30T21:43:17.607Z,3.87
2018-04-30T21:45:46.577Z,4.30
2018-04-30T21:48:15.455Z,3.93
2018-04-30T21:50:44.486Z,4.17
2018-04-30T21:53:13.458Z,4.10
2018-04-30T21:55:42.365Z,3.67
2018-04-30T21:58:11.253Z,3.70
2018-04-30T22:00:40.196Z,4.10
2018-04-30T22:03:09.113Z,4.33
2018-04-30T22:05:38.137Z,4.47
2018-04-30T22:08:07.100Z,4.97
2018-04-30T22:10:35.991Z,4.60
2018-04-30T22:13:04.855Z,3.90
2018-04-30T22:15:33.871Z,4.73
2018-04-30T22:18:02.763Z,4.80
2018-04-30T22:20:31.761Z,5.30
2018-04-30T22:23:00.690Z,4.97
2018-04-30T22:25:29.608Z,4.87
2018-04-30T22:27:58.530Z,4.97
2018-04-30T22:30:27.447Z,5.20
2018-04-30T22:32:56.365Z,4.57
2018-04-30T22:35:25.248Z,5.30
2018-04-30T22:37:54.189Z,5.40
2018-04-30T22:40:23.063Z,5.07
2018-04-30T22:42:51.967Z,4.93
2018-04-30T22:45:20.907Z,4.53
2018-04-30T22:47:49.854Z,4.37
2018-04-30T22:50:18.725Z,4.60
2018-04-30T22:52:47.747Z,4.47
2018-04-30T22:55:16.746Z,4.20
2018-04-30T22:57:45.619Z,4.03
2018-04-30T23:00:14.619Z,4.33
2018-04-30T23:02:43.608Z,4.27
2018-04-30T23:05:12.489Z,4.50
2018-04-30T23:07:41.417Z,3.97
2018-04-30T23:10:10.376Z,4.53
2018-04-30T23:12:39.388Z,5.17
2018-04-30T23:15:08.358Z,4.50
2018-04-30T23:17:37.254Z,4.40
2018-04-30T23:20:06.157Z,4.50
2018-04-30T23:22:35.250Z,4.70
2018-04-30T23:25:04.119Z,4.70
2018-04-30T23:27:33.017Z,4.47
2018-04-30T23:30:01.955Z,4.20
2018-04-30T23:32:31.829Z,4.53
2018-04-30T23:35:00.820Z,3.90
2018-04-30T23:37:29.748Z,4.57
2018-04-30T23:39:58.722Z,4.40
2018-04-30T23:42:27.694Z,4.50
2018-04-30T23:44:56.647Z,5.00
2018-04-30T23:47:25.570Z,4.50
2018-04-30T23:49:54.441Z,5.27
2018-04-30T23:52:23.458Z,5.07
2018-04-30T23:54:52.356Z,5.33
2018-04-30T23:57:21.346Z,4.93
2018-04-30T23:59:50.289Z,5.13
